sensor_id;sensor_type;location;lat;lon;timestamp;P1;durP1;ratioP1;P2;durP2;ratioP2
73015;SDS011;61893;50.074;14.440;2023-04-10T00:01:11;33.03;;;18.50;;
73015;SDS011;61893;50.074;14.440;2023-04-10T00:03:41;35.67;;;19.77;;
73015;SDS011;61893;50.074;14.440;2023-04-10T00:06:27;30.58;;;18.42;;
73015;SDS011;61893;50.074;14.440;2023-04-10T00:08:59;31.45;;;18.02;;
73015;SDS011;61893;50.074;14.440;2023-04-10T00:11:49;33.17;;;18.20;;
73015;SDS011;61893;50.074;14.440;2023-04-10T00:14:22;31.38;;;18.23;;
73015;SDS011;61893;50.074;14.440;2023-04-10T00:17:04;33.53;;;19.10;;
73015;SDS011;61893;50.074;14.440;2023-04-10T00:19:29;38.80;;;19.88;;
73015;SDS011;61893;50.074;14.440;2023-04-10T00:21:58;39.63;;;21.47;;
73015;SDS011;61893;50.074;14.440;2023-04-10T00:24:29;45.20;;;21.13;;
73015;SDS011;61893;50.074;14.440;2023-04-10T00:27:02;35.67;;;20.10;;
73015;SDS011;61893;50.074;14.440;2023-04-10T00:30:21;36.40;;;20.47;;
73015;SDS011;61893;50.074;14.440;2023-04-10T00:32:52;38.77;;;20.97;;
73015;SDS011;61893;50.074;14.440;2023-04-10T00:35:21;39.13;;;20.90;;
73015;SDS011;61893;50.074;14.440;2023-04-10T00:37:47;38.90;;;21.60;;
73015;SDS011;61893;50.074;14.440;2023-04-10T00:40:20;37.72;;;21.90;;
73015;SDS011;61893;50.074;14.440;2023-04-10T00:42:50;37.60;;;21.60;;
73015;SDS011;61893;50.074;14.440;2023-04-10T00:45:16;37.00;;;21.40;;
73015;SDS011;61893;50.074;14.440;2023-04-10T00:47:42;39.17;;;21.63;;
73015;SDS011;61893;50.074;14.440;2023-04-10T00:50:21;35.25;;;21.05;;
73015;SDS011;61893;50.074;14.440;2023-04-10T00:52:51;36.47;;;21.57;;
73015;SDS011;61893;50.074;14.440;2023-04-10T00:55:17;38.50;;;21.70;;
73015;SDS011;61893;50.074;14.440;2023-04-10T00:58:00;43.80;;;22.37;;
73015;SDS011;61893;50.074;14.440;2023-04-10T01:00:46;38.67;;;22.10;;
73015;SDS011;61893;50.074;14.440;2023-04-10T01:03:13;39.70;;;21.37;;
73015;SDS011;61893;50.074;14.440;2023-04-10T01:11:06;41.80;;;22.43;;
73015;SDS011;61893;50.074;14.440;2023-04-10T01:13:58;42.10;;;23.33;;
73015;SDS011;61893;50.074;14.440;2023-04-10T01:16:42;39.47;;;21.33;;
73015;SDS011;61893;50.074;14.440;2023-04-10T01:22:01;40.73;;;21.00;;
73015;SDS011;61893;50.074;14.440;2023-04-10T01:24:34;41.77;;;21.80;;
73015;SDS011;61893;50.074;14.440;2023-04-10T01:27:29;42.97;;;21.98;;
73015;SDS011;61893;50.074;14.440;2023-04-10T01:30:36;37.83;;;20.93;;
73015;SDS011;61893;50.074;14.440;2023-04-10T01:33:25;38.70;;;21.87;;
73015;SDS011;61893;50.074;14.440;2023-04-10T01:35:54;38.70;;;21.07;;
73015;SDS011;61893;50.074;14.440;2023-04-10T01:38:33;37.77;;;20.97;;
73015;SDS011;61893;50.074;14.440;2023-04-10T01:41:13;38.77;;;21.83;;
73015;SDS011;61893;50.074;14.440;2023-04-10T01:43:54;38.87;;;21.80;;
73015;SDS011;61893;50.074;14.440;2023-04-10T01:46:24;41.43;;;21.37;;
73015;SDS011;61893;50.074;14.440;2023-04-10T01:49:09;40.90;;;21.40;;
73015;SDS011;61893;50.074;14.440;2023-04-10T01:51:37;44.37;;;22.17;;
73015;SDS011;61893;50.074;14.440;2023-04-10T01:54:07;41.47;;;22.00;;
73015;SDS011;61893;50.074;14.440;2023-04-10T01:56:33;41.77;;;22.67;;
73015;SDS011;61893;50.074;14.440;2023-04-10T01:59:00;39.73;;;21.53;;
73015;SDS011;61893;50.074;14.440;2023-04-10T02:01:27;41.17;;;22.00;;
73015;SDS011;61893;50.074;14.440;2023-04-10T02:03:53;39.33;;;21.60;;
73015;SDS011;61893;50.074;14.440;2023-04-10T02:06:22;38.80;;;21.80;;
73015;SDS011;61893;50.074;14.440;2023-04-10T02:09:02;41.33;;;23.27;;
73015;SDS011;61893;50.074;14.440;2023-04-10T02:11:54;42.13;;;22.63;;
73015;SDS011;61893;50.074;14.440;2023-04-10T02:14:23;40.30;;;21.50;;
73015;SDS011;61893;50.074;14.440;2023-04-10T02:17:05;41.07;;;21.97;;
73015;SDS011;61893;50.074;14.440;2023-04-10T02:19:34;42.43;;;21.60;;
73015;SDS011;61893;50.074;14.440;2023-04-10T02:22:14;39.87;;;21.17;;
73015;SDS011;61893;50.074;14.440;2023-04-10T02:24:42;38.70;;;21.77;;
73015;SDS011;61893;50.074;14.440;2023-04-10T02:27:08;39.73;;;21.47;;
73015;SDS011;61893;50.074;14.440;2023-04-10T02:29:34;40.03;;;21.33;;
73015;SDS011;61893;50.074;14.440;2023-04-10T02:32:02;41.70;;;22.30;;
73015;SDS011;61893;50.074;14.440;2023-04-10T02:34:31;39.80;;;20.87;;
73015;SDS011;61893;50.074;14.440;2023-04-10T02:37:20;42.17;;;22.70;;
73015;SDS011;61893;50.074;14.440;2023-04-10T02:39:56;40.33;;;21.27;;
73015;SDS011;61893;50.074;14.440;2023-04-10T02:42:22;42.07;;;20.87;;
73015;SDS011;61893;50.074;14.440;2023-04-10T02:45:01;38.63;;;21.13;;
73015;SDS011;61893;50.074;14.440;2023-04-10T02:47:27;40.13;;;22.13;;
73015;SDS011;61893;50.074;14.440;2023-04-10T02:50:10;42.37;;;22.73;;
73015;SDS011;61893;50.074;14.440;2023-04-10T02:53:12;43.00;;;22.17;;
73015;SDS011;61893;50.074;14.440;2023-04-10T02:55:58;43.73;;;22.10;;
73015;SDS011;61893;50.074;14.440;2023-04-10T02:58:27;43.53;;;22.73;;
73015;SDS011;61893;50.074;14.440;2023-04-10T03:00:56;40.93;;;22.23;;
73015;SDS011;61893;50.074;14.440;2023-04-10T03:03:22;41.27;;;22.73;;
73015;SDS011;61893;50.074;14.440;2023-04-10T03:05:48;39.13;;;22.40;;
73015;SDS011;61893;50.074;14.440;2023-04-10T03:08:14;41.37;;;20.90;;
73015;SDS011;61893;50.074;14.440;2023-04-10T03:10:45;41.00;;;22.53;;
73015;SDS011;61893;50.074;14.440;2023-04-10T03:13:15;42.67;;;22.53;;
73015;SDS011;61893;50.074;14.440;2023-04-10T03:16:00;36.43;;;21.13;;
73015;SDS011;61893;50.074;14.440;2023-04-10T03:18:29;40.10;;;21.17;;
73015;SDS011;61893;50.074;14.440;2023-04-10T03:21:06;46.57;;;22.93;;
73015;SDS011;61893;50.074;14.440;2023-04-10T03:23:35;44.80;;;22.73;;
73015;SDS011;61893;50.074;14.440;2023-04-10T03:26:01;42.40;;;22.17;;
73015;SDS011;61893;50.074;14.440;2023-04-10T03:28:34;43.03;;;23.03;;
73015;SDS011;61893;50.074;14.440;2023-04-10T03:31:01;40.27;;;21.70;;
73015;SDS011;61893;50.074;14.440;2023-04-10T03:33:56;43.73;;;21.70;;
73015;SDS011;61893;50.074;14.440;2023-04-10T03:36:43;44.10;;;23.33;;
73015;SDS011;61893;50.074;14.440;2023-04-10T03:39:30;42.63;;;22.90;;
73015;SDS011;61893;50.074;14.440;2023-04-10T03:41:58;42.77;;;21.87;;
73015;SDS011;61893;50.074;14.440;2023-04-10T03:44:24;45.27;;;22.07;;
73015;SDS011;61893;50.074;14.440;2023-04-10T03:46:50;41.07;;;22.70;;
73015;SDS011;61893;50.074;14.440;2023-04-10T03:49:16;41.80;;;22.87;;
73015;SDS011;61893;50.074;14.440;2023-04-10T03:51:44;39.97;;;22.53;;
73015;SDS011;61893;50.074;14.440;2023-04-10T03:54:13;40.47;;;22.33;;
73015;SDS011;61893;50.074;14.440;2023-04-10T03:56:56;41.57;;;22.63;;
73015;SDS011;61893;50.074;14.440;2023-04-10T03:59:24;41.30;;;22.47;;
73015;SDS011;61893;50.074;14.440;2023-04-10T04:01:58;43.42;;;22.88;;
73015;SDS011;61893;50.074;14.440;2023-04-10T04:04:24;43.90;;;22.70;;
73015;SDS011;61893;50.074;14.440;2023-04-10T04:06:50;39.43;;;22.83;;
73015;SDS011;61893;50.074;14.440;2023-04-10T04:09:24;43.47;;;22.47;;
73015;SDS011;61893;50.074;14.440;2023-04-10T04:11:50;41.40;;;22.50;;
73015;SDS011;61893;50.074;14.440;2023-04-10T04:14:16;41.87;;;21.70;;
73015;SDS011;61893;50.074;14.440;2023-04-10T04:16:44;40.10;;;22.10;;
73015;SDS011;61893;50.074;14.440;2023-04-10T04:19:24;39.43;;;20.73;;
73015;SDS011;61893;50.074;14.440;2023-04-10T04:22:06;42.40;;;22.63;;
73015;SDS011;61893;50.074;14.440;2023-04-10T04:24:36;41.93;;;22.17;;
73015;SDS011;61893;50.074;14.440;2023-04-10T04:27:09;40.53;;;21.83;;
73015;SDS011;61893;50.074;14.440;2023-04-10T04:30:20;39.03;;;21.00;;
73015;SDS011;61893;50.074;14.440;2023-04-10T04:33:01;43.20;;;22.47;;
73015;SDS011;61893;50.074;14.440;2023-04-10T04:35:27;43.53;;;21.30;;
73015;SDS011;61893;50.074;14.440;2023-04-10T04:37:55;41.93;;;21.47;;
73015;SDS011;61893;50.074;14.440;2023-04-10T04:40:21;40.67;;;22.60;;
73015;SDS011;61893;50.074;14.440;2023-04-10T04:43:04;41.57;;;21.17;;
73015;SDS011;61893;50.074;14.440;2023-04-10T04:45:30;37.67;;;20.93;;
73015;SDS011;61893;50.074;14.440;2023-04-10T04:47:55;38.40;;;21.47;;
73015;SDS011;61893;50.074;14.440;2023-04-10T04:50:30;43.90;;;21.47;;
73015;SDS011;61893;50.074;14.440;2023-04-10T04:53:16;40.33;;;21.23;;
73015;SDS011;61893;50.074;14.440;2023-04-10T04:55:44;38.27;;;20.63;;
73015;SDS011;61893;50.074;14.440;2023-04-10T04:58:15;40.35;;;22.55;;
73015;SDS011;61893;50.074;14.440;2023-04-10T05:00:56;39.67;;;20.43;;
73015;SDS011;61893;50.074;14.440;2023-04-10T05:03:28;42.43;;;21.07;;
73015;SDS011;61893;50.074;14.440;2023-04-10T05:05:55;36.10;;;20.70;;
73015;SDS011;61893;50.074;14.440;2023-04-10T05:08:22;37.20;;;20.20;;
73015;SDS011;61893;50.074;14.440;2023-04-10T05:11:03;37.00;;;20.40;;
73015;SDS011;61893;50.074;14.440;2023-04-10T05:13:34;33.83;;;18.93;;
73015;SDS011;61893;50.074;14.440;2023-04-10T05:16:11;38.17;;;19.80;;
73015;SDS011;61893;50.074;14.440;2023-04-10T05:18:37;37.13;;;20.97;;
73015;SDS011;61893;50.074;14.440;2023-04-10T05:21:07;36.70;;;21.17;;
73015;SDS011;61893;50.074;14.440;2023-04-10T05:23:50;40.50;;;21.30;;
73015;SDS011;61893;50.074;14.440;2023-04-10T05:26:32;39.78;;;20.70;;
73015;SDS011;61893;50.074;14.440;2023-04-10T05:29:20;37.20;;;19.87;;
73015;SDS011;61893;50.074;14.440;2023-04-10T05:32:46;37.57;;;19.63;;
73015;SDS011;61893;50.074;14.440;2023-04-10T05:36:16;36.17;;;18.60;;
73015;SDS011;61893;50.074;14.440;2023-04-10T05:39:08;36.00;;;19.30;;
73015;SDS011;61893;50.074;14.440;2023-04-10T05:41:37;34.70;;;20.50;;
73015;SDS011;61893;50.074;14.440;2023-04-10T05:44:03;35.70;;;20.05;;
73015;SDS011;61893;50.074;14.440;2023-04-10T05:46:29;37.67;;;20.08;;
73015;SDS011;61893;50.074;14.440;2023-04-10T05:49:51;33.42;;;19.05;;
73015;SDS011;61893;50.074;14.440;2023-04-10T05:52:25;32.97;;;18.95;;
73015;SDS011;61893;50.074;14.440;2023-04-10T05:55:01;35.22;;;19.83;;
73015;SDS011;61893;50.074;14.440;2023-04-10T05:57:28;34.17;;;19.38;;
73015;SDS011;61893;50.074;14.440;2023-04-10T06:00:02;34.97;;;19.65;;
73015;SDS011;61893;50.074;14.440;2023-04-10T06:02:56;35.17;;;18.52;;
73015;SDS011;61893;50.074;14.440;2023-04-10T06:06:09;32.67;;;17.83;;
73015;SDS011;61893;50.074;14.440;2023-04-10T06:09:01;31.58;;;17.98;;
73015;SDS011;61893;50.074;14.440;2023-04-10T06:11:28;33.85;;;18.63;;
73015;SDS011;61893;50.074;14.440;2023-04-10T06:13:55;36.50;;;19.65;;
73015;SDS011;61893;50.074;14.440;2023-04-10T06:16:28;35.33;;;18.60;;
73015;SDS011;61893;50.074;14.440;2023-04-10T06:18:56;31.77;;;18.38;;
73015;SDS011;61893;50.074;14.440;2023-04-10T06:21:27;32.28;;;18.85;;
73015;SDS011;61893;50.074;14.440;2023-04-10T06:23:53;31.52;;;18.02;;
73015;SDS011;61893;50.074;14.440;2023-04-10T06:26:21;34.38;;;17.92;;
73015;SDS011;61893;50.074;14.440;2023-04-10T06:28:46;34.33;;;19.08;;
73015;SDS011;61893;50.074;14.440;2023-04-10T06:31:27;31.05;;;18.42;;
73015;SDS011;61893;50.074;14.440;2023-04-10T06:33:53;30.92;;;17.63;;
73015;SDS011;61893;50.074;14.440;2023-04-10T06:36:21;30.05;;;17.52;;
73015;SDS011;61893;50.074;14.440;2023-04-10T06:38:49;30.67;;;17.75;;
73015;SDS011;61893;50.074;14.440;2023-04-10T06:41:33;28.80;;;17.73;;
73015;SDS011;61893;50.074;14.440;2023-04-10T06:44:37;29.30;;;18.65;;
73015;SDS011;61893;50.074;14.440;2023-04-10T06:47:53;29.92;;;18.42;;
73015;SDS011;61893;50.074;14.440;2023-04-10T06:51:06;31.23;;;17.23;;
73015;SDS011;61893;50.074;14.440;2023-04-10T06:54:31;31.80;;;18.75;;
73015;SDS011;61893;50.074;14.440;2023-04-10T06:57:58;30.35;;;19.00;;
73015;SDS011;61893;50.074;14.440;2023-04-10T07:01:16;28.42;;;17.75;;
73015;SDS011;61893;50.074;14.440;2023-04-10T07:04:54;30.20;;;18.02;;
73015;SDS011;61893;50.074;14.440;2023-04-10T07:08:41;28.08;;;17.80;;
73015;SDS011;61893;50.074;14.440;2023-04-10T07:11:48;25.75;;;17.17;;
73015;SDS011;61893;50.074;14.440;2023-04-10T07:15:04;27.02;;;17.17;;
73015;SDS011;61893;50.074;14.440;2023-04-10T07:18:32;26.98;;;17.30;;
73015;SDS011;61893;50.074;14.440;2023-04-10T07:21:30;24.40;;;16.73;;
73015;SDS011;61893;50.074;14.440;2023-04-10T07:24:39;25.77;;;15.82;;
73015;SDS011;61893;50.074;14.440;2023-04-10T07:27:23;24.48;;;15.93;;
73015;SDS011;61893;50.074;14.440;2023-04-10T07:30:12;24.17;;;16.38;;
73015;SDS011;61893;50.074;14.440;2023-04-10T07:32:56;20.40;;;15.02;;
73015;SDS011;61893;50.074;14.440;2023-04-10T07:36:02;19.13;;;13.45;;
73015;SDS011;61893;50.074;14.440;2023-04-10T07:38:57;21.17;;;14.75;;
73015;SDS011;61893;50.074;14.440;2023-04-10T07:42:05;20.38;;;15.20;;
73015;SDS011;61893;50.074;14.440;2023-04-10T07:44:57;21.45;;;15.85;;
73015;SDS011;61893;50.074;14.440;2023-04-10T07:48:11;15.57;;;12.35;;
73015;SDS011;61893;50.074;14.440;2023-04-10T07:51:32;17.58;;;12.82;;
73015;SDS011;61893;50.074;14.440;2023-04-10T07:54:36;15.75;;;12.18;;
73015;SDS011;61893;50.074;14.440;2023-04-10T07:57:05;16.48;;;10.85;;
73015;SDS011;61893;50.074;14.440;2023-04-10T08:04:54;15.13;;;11.40;;
73015;SDS011;61893;50.074;14.440;2023-04-10T08:07:35;14.80;;;11.77;;
73015;SDS011;61893;50.074;14.440;2023-04-10T08:10:01;15.93;;;11.75;;
73015;SDS011;61893;50.074;14.440;2023-04-10T08:12:32;18.08;;;12.55;;
73015;SDS011;61893;50.074;14.440;2023-04-10T08:14:59;17.00;;;12.27;;
73015;SDS011;61893;50.074;14.440;2023-04-10T08:17:47;13.93;;;11.32;;
73015;SDS011;61893;50.074;14.440;2023-04-10T08:20:46;15.13;;;11.73;;
73015;SDS011;61893;50.074;14.440;2023-04-10T08:23:30;16.05;;;11.70;;
73015;SDS011;61893;50.074;14.440;2023-04-10T08:26:21;16.50;;;12.82;;
73015;SDS011;61893;50.074;14.440;2023-04-10T08:29:05;14.43;;;10.82;;
73015;SDS011;61893;50.074;14.440;2023-04-10T08:32:12;15.68;;;11.68;;
73015;SDS011;61893;50.074;14.440;2023-04-10T08:34:57;12.45;;;10.02;;
73015;SDS011;61893;50.074;14.440;2023-04-10T08:38:52;10.88;;;8.40;;
73015;SDS011;61893;50.074;14.440;2023-04-10T08:42:25;11.32;;;9.25;;
73015;SDS011;61893;50.074;14.440;2023-04-10T08:45:55;12.57;;;8.43;;
73015;SDS011;61893;50.074;14.440;2023-04-10T08:50:01;13.15;;;9.32;;
73015;SDS011;61893;50.074;14.440;2023-04-10T08:53:53;12.52;;;8.63;;
73015;SDS011;61893;50.074;14.440;2023-04-10T08:57:09;11.77;;;8.95;;
73015;SDS011;61893;50.074;14.440;2023-04-10T08:59:53;10.88;;;7.30;;
73015;SDS011;61893;50.074;14.440;2023-04-10T09:02:56;10.95;;;8.18;;
73015;SDS011;61893;50.074;14.440;2023-04-10T09:06:20;11.05;;;7.03;;
73015;SDS011;61893;50.074;14.440;2023-04-10T09:10:02;12.75;;;8.13;;
73015;SDS011;61893;50.074;14.440;2023-04-10T09:13:46;10.52;;;7.32;;
73015;SDS011;61893;50.074;14.440;2023-04-10T09:18:06;10.65;;;7.40;;
73015;SDS011;61893;50.074;14.440;2023-04-10T09:21:18;9.98;;;6.90;;
73015;SDS011;61893;50.074;14.440;2023-04-10T09:25:18;10.70;;;7.22;;
73015;SDS011;61893;50.074;14.440;2023-04-10T09:28:23;10.48;;;7.13;;
73015;SDS011;61893;50.074;14.440;2023-04-10T09:31:52;10.32;;;6.55;;
73015;SDS011;61893;50.074;14.440;2023-04-10T09:35:44;10.82;;;7.63;;
73015;SDS011;61893;50.074;14.440;2023-04-10T09:39:42;10.60;;;7.22;;
73015;SDS011;61893;50.074;14.440;2023-04-10T09:42:55;10.45;;;6.85;;
73015;SDS011;61893;50.074;14.440;2023-04-10T09:46:26;11.13;;;7.30;;
73015;SDS011;61893;50.074;14.440;2023-04-10T09:50:17;10.57;;;7.47;;
73015;SDS011;61893;50.074;14.440;2023-04-10T09:53:56;10.32;;;7.50;;
73015;SDS011;61893;50.074;14.440;2023-04-10T09:57:44;13.82;;;8.25;;
73015;SDS011;61893;50.074;14.440;2023-04-10T10:01:00;12.68;;;8.48;;
73015;SDS011;61893;50.074;14.440;2023-04-10T10:04:48;11.52;;;8.55;;
73015;SDS011;61893;50.074;14.440;2023-04-10T10:08:10;15.95;;;10.65;;
73015;SDS011;61893;50.074;14.440;2023-04-10T10:11:57;12.82;;;8.43;;
73015;SDS011;61893;50.074;14.440;2023-04-10T10:15:44;11.77;;;7.88;;
73015;SDS011;61893;50.074;14.440;2023-04-10T10:21:59;13.32;;;7.95;;
73015;SDS011;61893;50.074;14.440;2023-04-10T10:25:31;13.57;;;8.20;;
73015;SDS011;61893;50.074;14.440;2023-04-10T10:29:04;13.52;;;8.98;;
73015;SDS011;61893;50.074;14.440;2023-04-10T10:31:38;12.65;;;8.40;;
73015;SDS011;61893;50.074;14.440;2023-04-10T10:34:05;13.15;;;8.90;;
73015;SDS011;61893;50.074;14.440;2023-04-10T10:36:36;14.95;;;9.38;;
73015;SDS011;61893;50.074;14.440;2023-04-10T10:40:14;13.18;;;9.00;;
73015;SDS011;61893;50.074;14.440;2023-04-10T10:47:28;13.25;;;8.60;;
73015;SDS011;61893;50.074;14.440;2023-04-10T10:50:58;14.88;;;8.30;;
73015;SDS011;61893;50.074;14.440;2023-04-10T10:54:50;11.18;;;8.25;;
73015;SDS011;61893;50.074;14.440;2023-04-10T11:02:11;12.35;;;8.30;;
73015;SDS011;61893;50.074;14.440;2023-04-10T11:09:00;12.98;;;8.43;;
73015;SDS011;61893;50.074;14.440;2023-04-10T11:13:13;14.60;;;8.68;;
73015;SDS011;61893;50.074;14.440;2023-04-10T11:16:09;15.68;;;8.95;;
73015;SDS011;61893;50.074;14.440;2023-04-10T11:20:00;12.65;;;8.57;;
73015;SDS011;61893;50.074;14.440;2023-04-10T11:23:22;12.15;;;7.57;;
73015;SDS011;61893;50.074;14.440;2023-04-10T11:27:36;15.00;;;8.85;;
73015;SDS011;61893;50.074;14.440;2023-04-10T11:30:50;13.25;;;8.65;;
73015;SDS011;61893;50.074;14.440;2023-04-10T11:34:42;13.25;;;7.75;;
73015;SDS011;61893;50.074;14.440;2023-04-10T11:39:09;11.88;;;7.93;;
73015;SDS011;61893;50.074;14.440;2023-04-10T11:41:56;12.10;;;8.15;;
73015;SDS011;61893;50.074;14.440;2023-04-10T11:45:40;11.93;;;7.72;;
73015;SDS011;61893;50.074;14.440;2023-04-10T11:49:15;11.32;;;7.78;;
73015;SDS011;61893;50.074;14.440;2023-04-10T11:52:56;12.45;;;7.85;;
73015;SDS011;61893;50.074;14.440;2023-04-10T12:00:11;11.35;;;6.72;;
73015;SDS011;61893;50.074;14.440;2023-04-10T12:03:46;12.82;;;7.88;;
73015;SDS011;61893;50.074;14.440;2023-04-10T12:07:08;10.45;;;7.55;;
73015;SDS011;61893;50.074;14.440;2023-04-10T12:09:55;10.63;;;7.00;;
73015;SDS011;61893;50.074;14.440;2023-04-10T12:13:28;10.40;;;7.18;;
73015;SDS011;61893;50.074;14.440;2023-04-10T12:16:35;9.30;;;6.60;;
73015;SDS011;61893;50.074;14.440;2023-04-10T12:19:23;10.77;;;6.55;;
73015;SDS011;61893;50.074;14.440;2023-04-10T12:22:05;10.25;;;7.35;;
73015;SDS011;61893;50.074;14.440;2023-04-10T12:24:41;9.43;;;6.78;;
73015;SDS011;61893;50.074;14.440;2023-04-10T12:27:36;10.13;;;6.72;;
73015;SDS011;61893;50.074;14.440;2023-04-10T12:30:17;9.07;;;6.00;;
73015;SDS011;61893;50.074;14.440;2023-04-10T12:32:50;9.65;;;6.07;;
73015;SDS011;61893;50.074;14.440;2023-04-10T12:35:18;8.35;;;5.80;;
73015;SDS011;61893;50.074;14.440;2023-04-10T12:40:29;8.60;;;6.15;;
73015;SDS011;61893;50.074;14.440;2023-04-10T12:42:56;9.00;;;6.32;;
73015;SDS011;61893;50.074;14.440;2023-04-10T12:45:44;8.95;;;6.15;;
73015;SDS011;61893;50.074;14.440;2023-04-10T12:49:17;8.30;;;5.57;;
73015;SDS011;61893;50.074;14.440;2023-04-10T12:53:00;8.52;;;6.20;;
73015;SDS011;61893;50.074;14.440;2023-04-10T12:56:38;9.07;;;5.55;;
73015;SDS011;61893;50.074;14.440;2023-04-10T12:59:27;7.93;;;5.05;;
73015;SDS011;61893;50.074;14.440;2023-04-10T13:02:11;9.57;;;5.68;;
73015;SDS011;61893;50.074;14.440;2023-04-10T13:05:25;8.70;;;5.63;;
73015;SDS011;61893;50.074;14.440;2023-04-10T13:08:44;8.57;;;5.93;;
73015;SDS011;61893;50.074;14.440;2023-04-10T13:11:50;8.00;;;5.72;;
73015;SDS011;61893;50.074;14.440;2023-04-10T13:15:14;10.00;;;5.35;;
73015;SDS011;61893;50.074;14.440;2023-04-10T13:18:24;7.72;;;5.28;;
73015;SDS011;61893;50.074;14.440;2023-04-10T13:21:36;7.55;;;5.40;;
73015;SDS011;61893;50.074;14.440;2023-04-10T13:24:20;7.38;;;5.20;;
73015;SDS011;61893;50.074;14.440;2023-04-10T13:27:21;7.70;;;5.03;;
73015;SDS011;61893;50.074;14.440;2023-04-10T13:30:01;8.95;;;5.05;;
73015;SDS011;61893;50.074;14.440;2023-04-10T13:33:12;8.82;;;5.80;;
73015;SDS011;61893;50.074;14.440;2023-04-10T13:36:04;7.03;;;4.57;;
73015;SDS011;61893;50.074;14.440;2023-04-10T13:38:53;6.65;;;4.47;;
73015;SDS011;61893;50.074;14.440;2023-04-10T13:41:34;7.57;;;4.72;;
73015;SDS011;61893;50.074;14.440;2023-04-10T13:44:52;6.57;;;4.63;;
73015;SDS011;61893;50.074;14.440;2023-04-10T13:48:18;6.38;;;4.30;;
73015;SDS011;61893;50.074;14.440;2023-04-10T13:51:25;8.02;;;4.65;;
73015;SDS011;61893;50.074;14.440;2023-04-10T13:54:33;8.00;;;4.88;;
73015;SDS011;61893;50.074;14.440;2023-04-10T13:58:02;7.75;;;4.63;;
73015;SDS011;61893;50.074;14.440;2023-04-10T14:01:11;6.53;;;4.53;;
73015;SDS011;61893;50.074;14.440;2023-04-10T14:04:41;7.50;;;5.05;;
73015;SDS011;61893;50.074;14.440;2023-04-10T14:08:13;6.45;;;4.35;;
73015;SDS011;61893;50.074;14.440;2023-04-10T14:11:30;7.05;;;4.60;;
73015;SDS011;61893;50.074;14.440;2023-04-10T14:15:09;6.20;;;4.78;;
73015;SDS011;61893;50.074;14.440;2023-04-10T14:18:14;6.72;;;4.55;;
73015;SDS011;61893;50.074;14.440;2023-04-10T14:21:13;7.18;;;5.00;;
73015;SDS011;61893;50.074;14.440;2023-04-10T14:24:05;7.72;;;4.93;;
73015;SDS011;61893;50.074;14.440;2023-04-10T14:26:46;6.97;;;4.80;;
73015;SDS011;61893;50.074;14.440;2023-04-10T14:30:00;7.78;;;4.95;;
73015;SDS011;61893;50.074;14.440;2023-04-10T14:33:11;7.00;;;4.63;;
73015;SDS011;61893;50.074;14.440;2023-04-10T14:39:09;6.78;;;4.55;;
73015;SDS011;61893;50.074;14.440;2023-04-10T14:42:15;6.88;;;3.92;;
73015;SDS011;61893;50.074;14.440;2023-04-10T14:45:14;6.15;;;4.60;;
73015;SDS011;61893;50.074;14.440;2023-04-10T14:48:46;6.75;;;4.70;;
73015;SDS011;61893;50.074;14.440;2023-04-10T14:51:48;5.90;;;4.68;;
73015;SDS011;61893;50.074;14.440;2023-04-10T14:55:13;8.18;;;5.47;;
73015;SDS011;61893;50.074;14.440;2023-04-10T14:58:53;8.07;;;5.55;;
73015;SDS011;61893;50.074;14.440;2023-04-10T15:02:50;6.82;;;4.90;;
73015;SDS011;61893;50.074;14.440;2023-04-10T15:06:21;7.90;;;4.97;;
73015;SDS011;61893;50.074;14.440;2023-04-10T15:09:31;6.72;;;4.80;;
73015;SDS011;61893;50.074;14.440;2023-04-10T15:12:03;6.45;;;5.13;;
73015;SDS011;61893;50.074;14.440;2023-04-10T15:18:53;8.50;;;4.68;;
73015;SDS011;61893;50.074;14.440;2023-04-10T15:22:25;6.20;;;4.50;;
73015;SDS011;61893;50.074;14.440;2023-04-10T15:27:45;7.57;;;5.05;;
73015;SDS011;61893;50.074;14.440;2023-04-10T15:30:15;9.30;;;5.55;;
73015;SDS011;61893;50.074;14.440;2023-04-10T15:32:42;6.72;;;5.13;;
73015;SDS011;61893;50.074;14.440;2023-04-10T15:35:21;8.18;;;5.68;;
73015;SDS011;61893;50.074;14.440;2023-04-10T15:38:01;7.15;;;4.82;;
73015;SDS011;61893;50.074;14.440;2023-04-10T15:40:43;7.00;;;4.88;;
73015;SDS011;61893;50.074;14.440;2023-04-10T15:43:11;9.20;;;5.30;;
73015;SDS011;61893;50.074;14.440;2023-04-10T15:45:48;8.65;;;5.63;;
73015;SDS011;61893;50.074;14.440;2023-04-10T15:48:19;8.23;;;5.05;;
73015;SDS011;61893;50.074;14.440;2023-04-10T15:50:57;8.40;;;5.07;;
73015;SDS011;61893;50.074;14.440;2023-04-10T15:54:03;8.70;;;5.60;;
73015;SDS011;61893;50.074;14.440;2023-04-10T15:56:50;7.18;;;5.18;;
73015;SDS011;61893;50.074;14.440;2023-04-10T16:00:16;8.48;;;5.25;;
73015;SDS011;61893;50.074;14.440;2023-04-10T16:03:34;8.48;;;5.22;;
73015;SDS011;61893;50.074;14.440;2023-04-10T16:06:38;7.18;;;4.75;;
73015;SDS011;61893;50.074;14.440;2023-04-10T16:09:25;7.82;;;5.63;;
73015;SDS011;61893;50.074;14.440;2023-04-10T16:12:09;7.97;;;5.20;;
73015;SDS011;61893;50.074;14.440;2023-04-10T16:15:21;8.75;;;5.30;;
73015;SDS011;61893;50.074;14.440;2023-04-10T16:18:30;7.70;;;5.10;;
73015;SDS011;61893;50.074;14.440;2023-04-10T16:21:40;7.97;;;4.93;;
73015;SDS011;61893;50.074;14.440;2023-04-10T16:24:27;8.70;;;5.82;;
73015;SDS011;61893;50.074;14.440;2023-04-10T16:28:09;11.43;;;4.78;;
73015;SDS011;61893;50.074;14.440;2023-04-10T16:31:30;7.97;;;5.07;;
73015;SDS011;61893;50.074;14.440;2023-04-10T16:35:05;8.13;;;5.47;;
73015;SDS011;61893;50.074;14.440;2023-04-10T16:41:02;7.78;;;4.95;;
73015;SDS011;61893;50.074;14.440;2023-04-10T16:43:45;7.38;;;5.13;;
73015;SDS011;61893;50.074;14.440;2023-04-10T16:46:54;9.43;;;5.55;;
73015;SDS011;61893;50.074;14.440;2023-04-10T16:49:59;6.70;;;4.78;;
73015;SDS011;61893;50.074;14.440;2023-04-10T16:52:54;7.60;;;5.20;;
73015;SDS011;61893;50.074;14.440;2023-04-10T16:55:35;7.60;;;5.13;;
73015;SDS011;61893;50.074;14.440;2023-04-10T16:58:35;11.07;;;5.40;;
73015;SDS011;61893;50.074;14.440;2023-04-10T17:02:15;7.57;;;4.93;;
73015;SDS011;61893;50.074;14.440;2023-04-10T17:05:31;9.90;;;5.25;;
73015;SDS011;61893;50.074;14.440;2023-04-10T17:08:57;10.05;;;5.97;;
73015;SDS011;61893;50.074;14.440;2023-04-10T17:12:16;8.32;;;5.65;;
73015;SDS011;61893;50.074;14.440;2023-04-10T17:15:53;10.23;;;6.03;;
73015;SDS011;61893;50.074;14.440;2023-04-10T17:19:37;8.70;;;5.38;;
73015;SDS011;61893;50.074;14.440;2023-04-10T17:22:33;7.72;;;5.38;;
73015;SDS011;61893;50.074;14.440;2023-04-10T17:25:59;10.45;;;5.68;;
73015;SDS011;61893;50.074;14.440;2023-04-10T17:28:54;9.50;;;6.10;;
73015;SDS011;61893;50.074;14.440;2023-04-10T17:32:04;7.97;;;5.40;;
73015;SDS011;61893;50.074;14.440;2023-04-10T17:35:50;10.68;;;6.25;;
73015;SDS011;61893;50.074;14.440;2023-04-10T17:39:58;8.52;;;5.25;;
73015;SDS011;61893;50.074;14.440;2023-04-10T17:43:43;9.98;;;6.18;;
73015;SDS011;61893;50.074;14.440;2023-04-10T17:46:13;11.38;;;6.35;;
73015;SDS011;61893;50.074;14.440;2023-04-10T17:48:40;9.73;;;6.60;;
73015;SDS011;61893;50.074;14.440;2023-04-10T17:51:22;11.00;;;6.70;;